Time;durP1;ratioP1;P1;durP2;ratioP2;P2;SDS_P1;SDS_P2;PMS_P1;PMS_P2;Temp;Humidity;BMP_temperature;BMP_pressure;BME280_temperature;BME280_humidity;BME280_pressure;Samples;Min_cycle;Max_cycle;Signal;HPM_P1;HPM_P2
2023/06/28 00:00:01;;;;;;;6.72;2.42;;;;;;;17.08;100.00;101823.22;5013323;28;20382;-76
2023/06/28 00:02:26;;;;;;;14.88;3.35;;;;;;;17.13;100.00;101819.06;5013139;28;20040;-76
2023/06/28 00:04:52;;;;;;;12.32;2.63;;;;;;;17.14;100.00;101820.75;5013089;28;20034;-76
2023/06/28 00:07:17;;;;;;;10.32;2.60;;;;;;;17.15;100.00;101826.00;4995053;28;20075;-76
2023/06/28 00:09:43;;;;;;;9.73;2.55;;;;;;;17.17;100.00;101821.19;5013135;28;20034;-77
2023/06/28 00:12:08;;;;;;;7.38;2.42;;;;;;;17.19;100.00;101821.81;5013096;28;20353;-77
2023/06/28 00:14:34;;;;;;;12.25;2.80;;;;;;;17.19;100.00;101820.97;4996653;28;20041;-78
2023/06/28 00:16:59;;;;;;;8.50;2.63;;;;;;;17.23;100.00;101816.81;4996728;28;20037;-76
2023/06/28 00:19:28;;;;;;;8.07;2.70;;;;;;;17.22;100.00;101817.84;5013982;28;20068;-76
2023/06/28 00:21:54;;;;;;;9.90;3.05;;;;;;;17.22;100.00;101820.56;5014162;28;20037;-76
2023/06/28 00:24:20;;;;;;;10.38;3.05;;;;;;;17.17;100.00;101818.47;5015825;28;20026;-77
2023/06/28 00:26:45;;;;;;;9.00;2.92;;;;;;;17.19;100.00;101819.09;5016364;28;20022;-77
2023/06/28 00:29:10;;;;;;;11.13;2.83;;;;;;;17.15;100.00;101820.53;5014931;28;20511;-77
2023/06/28 00:31:36;;;;;;;11.05;2.92;;;;;;;17.15;100.00;101819.72;5014835;28;20108;-76
2023/06/28 00:34:01;;;;;;;11.70;3.30;;;;;;;17.15;100.00;101820.53;5013270;28;20470;-76
2023/06/28 00:36:26;;;;;;;14.30;3.00;;;;;;;17.18;100.00;101825.56;5013554;28;20370;-77
2023/06/28 00:38:52;;;;;;;9.57;3.10;;;;;;;17.19;100.00;101829.13;5014009;28;20022;-75
2023/06/28 00:41:17;;;;;;;8.77;2.92;;;;;;;17.24;100.00;101827.47;5014149;28;20374;-77
2023/06/28 00:43:43;;;;;;;11.95;3.25;;;;;;;17.29;100.00;101830.44;5013650;28;20064;-77
2023/06/28 00:46:08;;;;;;;15.68;3.88;;;;;;;17.32;100.00;101823.75;5013359;28;20419;-76
2023/06/28 00:48:34;;;;;;;9.70;2.85;;;;;;;17.28;100.00;101825.22;4995482;28;20034;-76
2023/06/28 00:50:59;;;;;;;8.60;3.00;;;;;;;17.33;100.00;101828.16;5011913;28;20099;-76
2023/06/28 00:53:25;;;;;;;14.38;3.53;;;;;;;17.34;100.00;101827.94;4994869;28;20044;-76
2023/06/28 00:55:51;;;;;;;14.60;3.83;;;;;;;17.34;100.00;101821.69;5011731;28;20077;-75
2023/06/28 00:58:17;;;;;;;17.55;4.10;;;;;;;17.38;100.00;101830.25;5012446;28;20189;-76
2023/06/28 01:00:44;;;;;;;12.35;4.10;;;;;;;17.36;100.00;101824.22;4994186;28;20501;-76
2023/06/28 01:03:10;;;;;;;8.65;3.25;;;;;;;17.34;100.00;101825.22;5010892;28;20026;-76
2023/06/28 01:05:35;;;;;;;14.80;4.05;;;;;;;17.25;100.00;101826.47;5011954;28;20069;-76
2023/06/28 01:08:01;;;;;;;14.55;4.07;;;;;;;17.28;100.00;101830.66;5012786;28;20525;-75
2023/06/28 01:10:27;;;;;;;13.45;3.88;;;;;;;17.19;100.00;101826.41;4995065;28;20061;-76
2023/06/28 01:12:53;;;;;;;12.98;4.20;;;;;;;17.22;100.00;101826.88;5011838;28;20824;-76
2023/06/28 01:15:18;;;;;;;19.48;4.72;;;;;;;17.14;100.00;101824.31;5012764;28;20415;-75
2023/06/28 01:17:43;;;;;;;10.32;4.32;;;;;;;17.15;100.00;101823.28;5012738;28;20034;-76
2023/06/28 01:20:09;;;;;;;21.33;5.18;;;;;;;17.16;100.00;101821.38;5009201;28;20034;-76
2023/06/28 01:22:35;;;;;;;16.30;4.25;;;;;;;17.04;100.00;101815.69;5029213;28;20022;-76
2023/06/28 01:25:01;;;;;;;16.25;4.80;;;;;;;17.07;100.00;101820.72;4995516;28;20034;-76
2023/06/28 01:27:26;;;;;;;11.82;4.05;;;;;;;16.98;100.00;101830.06;4995244;28;20129;-77
2023/06/28 01:29:56;;;;;;;12.13;4.22;;;;;;;16.99;100.00;101818.16;4994490;28;20044;-76
2023/06/28 01:32:21;;;;;;;13.98;3.85;;;;;;;17.02;100.00;101825.91;4995476;28;20109;-77
2023/06/28 01:34:47;;;;;;;12.02;3.72;;;;;;;17.03;100.00;101827.59;4994901;28;20034;-76
2023/06/28 01:37:12;;;;;;;11.55;3.90;;;;;;;17.07;100.00;101812.56;5013192;28;20472;-77
2023/06/28 01:39:38;;;;;;;11.80;4.30;;;;;;;17.09;100.00;101814.03;5003863;28;20076;-77
2023/06/28 01:42:03;;;;;;;5.22;3.15;;;;;;;17.15;100.00;101820.53;5012054;28;20026;-77
2023/06/28 01:44:29;;;;;;;13.18;3.90;;;;;;;17.14;100.00;101823.44;5001271;28;20112;-77
2023/06/28 01:46:55;;;;;;;11.95;4.30;;;;;;;17.16;100.00;101827.66;5012248;28;20422;-77
2023/06/28 01:49:21;;;;;;;13.13;4.13;;;;;;;17.13;100.00;101827.22;4995639;28;20440;-77
2023/06/28 01:51:47;;;;;;;19.88;3.95;;;;;;;17.15;100.00;101823.28;4993331;28;20129;-77
2023/06/28 01:54:14;;;;;;;12.55;4.13;;;;;;;17.18;100.00;101820.13;4994269;28;20041;-76
2023/06/28 01:56:39;;;;;;;14.95;3.90;;;;;;;17.20;100.00;101819.94;5011201;28;20073;-76
2023/06/28 01:59:05;;;;;;;17.27;4.25;;;;;;;17.22;100.00;101820.56;5011258;28;20026;-76
2023/06/28 02:01:30;;;;;;;15.35;4.20;;;;;;;17.21;100.00;101822.44;5011967;28;20511;-76
2023/06/28 02:03:56;;;;;;;14.93;4.25;;;;;;;17.21;100.00;101827.88;5012239;28;20056;-77
2023/06/28 02:06:21;;;;;;;13.77;4.00;;;;;;;17.11;100.00;101831.00;4995206;28;20484;-77
2023/06/28 02:08:46;;;;;;;10.55;4.30;;;;;;;17.10;100.00;101833.91;5013002;28;20034;-77
2023/06/28 02:11:12;;;;;;;16.65;4.57;;;;;;;17.14;100.00;101837.91;5011004;28;20083;-77
2023/06/28 02:13:37;;;;;;;12.43;4.35;;;;;;;17.17;100.00;101834.78;5011484;28;20057;-77
2023/06/28 02:16:03;;;;;;;18.40;4.72;;;;;;;17.17;100.00;101845.69;5010180;28;20088;-77
2023/06/28 02:18:31;;;;;;;12.98;4.47;;;;;;;17.08;100.00;101833.25;5010968;28;20025;-77
2023/06/28 02:20:56;;;;;;;17.25;4.78;;;;;;;17.14;100.00;101834.34;4993729;28;20123;-76
2023/06/28 02:23:22;;;;;;;12.60;4.30;;;;;;;17.12;100.00;101837.28;5011331;28;20069;-76
2023/06/28 02:25:47;;;;;;;10.82;4.30;;;;;;;17.08;100.00;101838.69;5009980;28;20041;-76
2023/06/28 02:28:13;;;;;;;16.02;4.47;;;;;;;17.07;100.00;101829.72;5017470;28;20029;-76
2023/06/28 02:30:38;;;;;;;10.93;4.40;;;;;;;17.02;100.00;101834.06;5010335;28;20029;-77
2023/06/28 02:33:04;;;;;;;21.20;4.57;;;;;;;16.94;100.00;101834.25;5009886;28;20448;-77
2023/06/28 02:35:30;;;;;;;20.17;5.47;;;;;;;16.88;100.00;101831.28;5011387;28;20117;-77
2023/06/28 02:37:55;;;;;;;19.67;4.68;;;;;;;16.84;100.00;101818.28;5011223;28;20038;-76
2023/06/28 02:40:21;;;;;;;10.27;4.38;;;;;;;16.80;100.00;101823.28;5010153;28;20392;-77
2023/06/28 02:42:46;;;;;;;18.02;5.00;;;;;;;16.78;100.00;101822.63;5009253;28;20042;-77
2023/06/28 02:45:12;;;;;;;8.75;4.50;;;;;;;16.82;100.00;101818.47;5010508;28;20100;-76
2023/06/28 02:47:38;;;;;;;14.63;4.82;;;;;;;16.72;100.00;101819.81;5012965;28;20556;-75
2023/06/28 02:50:05;;;;;;;12.75;4.53;;;;;;;16.77;100.00;101820.97;5009860;28;20041;-77
2023/06/28 02:52:32;;;;;;;21.83;5.53;;;;;;;16.79;100.00;101823.47;5010040;28;20030;-76
2023/06/28 02:54:57;;;;;;;14.63;4.55;;;;;;;16.75;100.00;101820.28;5009921;28;20030;-76
2023/06/28 02:57:22;;;;;;;13.73;4.68;;;;;;;16.72;100.00;101828.84;5011077;28;20389;-77
2023/06/28 02:59:48;;;;;;;10.13;4.75;;;;;;;16.69;100.00;101826.50;4992554;28;20113;-77
2023/06/28 03:02:17;;;;;;;17.95;5.10;;;;;;;16.67;100.00;101828.59;5010627;28;20117;-76
2023/06/28 03:04:42;;;;;;;8.43;4.00;;;;;;;16.62;100.00;101826.47;5012725;28;20040;-78
2023/06/28 03:07:15;;;;;;;20.00;4.53;;;;;;;16.55;100.00;101824.72;5009989;28;20037;-77
2023/06/28 03:09:40;;;;;;;19.48;5.05;;;;;;;16.58;100.00;101837.91;5010144;28;20022;-77
2023/06/28 03:12:06;;;;;;;18.52;5.22;;;;;;;16.54;100.00;101839.38;5020437;28;20436;-79
2023/06/28 03:14:32;;;;;;;14.38;4.95;;;;;;;16.49;100.00;101836.41;5010232;28;20516;-76
2023/06/28 03:16:57;;;;;;;15.13;5.13;;;;;;;16.50;100.00;101838.06;5008069;28;20046;-76
2023/06/28 03:19:22;;;;;;;19.63;6.10;;;;;;;16.50;100.00;101832.63;5010171;28;20054;-76
2023/06/28 03:21:48;;;;;;;13.35;5.00;;;;;;;16.48;100.00;101832.81;4993496;28;20022;-76
2023/06/28 03:24:13;;;;;;;19.33;6.40;;;;;;;16.44;100.00;101835.09;5009951;28;20026;-77
2023/06/28 03:26:38;;;;;;;20.77;5.43;;;;;;;16.37;100.00;101827.94;4993540;28;20033;-77
2023/06/28 03:29:04;;;;;;;19.08;5.43;;;;;;;16.39;100.00;101834.84;5011323;28;20491;-76
2023/06/28 03:31:31;;;;;;;15.75;5.03;;;;;;;16.37;100.00;101831.47;5016200;28;20033;-78
2023/06/28 03:33:56;;;;;;;15.20;5.53;;;;;;;16.39;100.00;101842.16;4999029;28;20022;-77
2023/06/28 03:36:23;;;;;;;14.40;5.07;;;;;;;16.34;100.00;101833.75;5015038;28;20550;-77
2023/06/28 03:38:49;;;;;;;18.43;5.90;;;;;;;16.36;100.00;101827.09;5015424;28;20032;-76
2023/06/28 03:41:14;;;;;;;11.35;5.18;;;;;;;16.37;100.00;101827.94;4995940;28;20026;-77
2023/06/28 03:43:40;;;;;;;16.58;6.20;;;;;;;16.29;100.00;101820.75;5014543;28;20385;-77
2023/06/28 03:46:05;;;;;;;16.85;5.55;;;;;;;16.32;100.00;101823.06;5014542;28;20370;-77
2023/06/28 03:48:31;;;;;;;12.98;5.40;;;;;;;16.15;100.00;101810.81;4997147;28;20080;-76
2023/06/28 03:50:57;;;;;;;14.07;6.00;;;;;;;16.12;100.00;101819.38;5014700;28;20026;-77
2023/06/28 03:53:22;;;;;;;14.70;6.40;;;;;;;16.02;100.00;101814.25;5012942;28;20033;-76
2023/06/28 03:55:47;;;;;;;16.88;5.45;;;;;;;15.99;100.00;101820.91;5013847;28;20050;-77
2023/06/28 03:58:13;;;;;;;14.57;5.30;;;;;;;16.01;100.00;101821.56;5010892;28;20119;-77
2023/06/28 04:00:38;;;;;;;18.27;5.45;;;;;;;16.01;100.00;101824.28;5010807;28;20408;-77
2023/06/28 04:03:03;;;;;;;15.18;5.32;;;;;;;16.05;100.00;101818.47;4994125;28;20657;-77
2023/06/28 04:05:29;;;;;;;14.40;5.70;;;;;;;16.11;100.00;101818.50;5012336;28;20213;-76
2023/06/28 04:07:57;;;;;;;16.00;5.35;;;;;;;16.12;100.00;101819.38;5010748;28;20056;-77
2023/06/28 04:10:23;;;;;;;12.95;5.70;;;;;;;16.17;100.00;101819.63;5013612;28;20121;-77
2023/06/28 04:12:48;;;;;;;10.75;5.40;;;;;;;16.06;100.00;101820.13;5014142;28;20048;-76
2023/06/28 04:15:14;;;;;;;15.55;6.18;;;;;;;16.06;100.00;101817.41;5012416;28;20034;-76
2023/06/28 04:17:39;;;;;;;23.13;7.32;;;;;;;16.06;100.00;101814.69;5015067;28;20469;-77
2023/06/28 04:20:06;;;;;;;20.42;6.32;;;;;;;16.12;100.00;101813.94;5011510;28;20400;-77
2023/06/28 04:22:32;;;;;;;26.33;6.82;;;;;;;16.11;100.00;101817.66;5013352;28;20545;-77
2023/06/28 04:24:58;;;;;;;21.48;6.63;;;;;;;16.02;100.00;101815.09;5012736;28;20109;-77
2023/06/28 04:27:23;;;;;;;13.52;6.22;;;;;;;16.05;100.00;101807.59;4979826;28;20083;-77
2023/06/28 04:29:48;;;;;;;17.38;6.30;;;;;;;16.14;100.00;101806.41;5012108;28;20026;-77
2023/06/28 04:32:23;;;;;;;19.40;6.97;;;;;;;16.23;100.00;101807.97;5008227;28;20116;-76
2023/06/28 04:34:52;;;;;;;16.73;6.07;;;;;;;16.22;100.00;101812.56;5006660;28;20034;-78
2023/06/28 04:37:18;;;;;;;16.63;6.88;;;;;;;16.27;100.00;101819.28;4993034;28;20137;-76
2023/06/28 04:39:43;;;;;;;21.17;7.10;;;;;;;16.29;100.00;101814.50;5009939;28;20487;-77
2023/06/28 04:42:09;;;;;;;18.58;7.40;;;;;;;16.27;100.00;101822.81;5008363;28;20026;-76
2023/06/28 04:44:36;;;;;;;22.75;7.78;;;;;;;16.27;100.00;101817.38;4995006;28;20112;-76
2023/06/28 04:47:03;;;;;;;18.83;7.47;;;;;;;16.25;100.00;101814.06;5009577;28;20096;-76
2023/06/28 04:49:28;;;;;;;21.92;8.23;;;;;;;16.24;100.00;101817.78;5004159;28;20076;-77
2023/06/28 04:51:54;;;;;;;20.52;8.13;;;;;;;16.28;100.00;101818.25;4997527;28;20022;-77
2023/06/28 04:54:19;;;;;;;29.95;9.38;;;;;;;16.32;100.00;101814.94;5012945;28;20121;-77
2023/06/28 04:56:45;;;;;;;24.60;8.05;;;;;;;16.40;100.00;101813.94;5013947;28;20492;-76
2023/06/28 04:59:10;;;;;;;20.08;8.55;;;;;;;16.35;100.00;101811.84;5013351;28;20022;-76
2023/06/28 05:01:37;;;;;;;22.40;8.80;;;;;;;16.33;100.00;101813.06;5010530;28;20022;-77
2023/06/28 05:04:03;;;;;;;23.70;8.52;;;;;;;16.34;100.00;101812.03;5014725;28;20397;-77
2023/06/28 05:06:29;;;;;;;22.02;9.50;;;;;;;16.37;100.00;101812.47;5014415;28;20025;-76
2023/06/28 05:08:54;;;;;;;26.80;9.35;;;;;;;16.37;100.00;101807.03;5014160;28;20483;-77
2023/06/28 05:11:20;;;;;;;22.42;9.02;;;;;;;16.40;100.00;101800.38;5014479;28;20041;-77
2023/06/28 05:13:45;;;;;;;23.60;9.18;;;;;;;16.41;100.00;101804.78;5014527;28;20026;-77
2023/06/28 05:16:10;;;;;;;24.27;9.35;;;;;;;16.50;100.00;101800.03;5012704;28;20026;-77
2023/06/28 05:18:36;;;;;;;26.90;8.95;;;;;;;16.51;100.00;101807.13;5013299;28;20026;-77
2023/06/28 05:21:01;;;;;;;29.17;9.70;;;;;;;16.49;100.00;101803.78;4976571;28;20118;-77
2023/06/28 05:23:27;;;;;;;25.90;9.98;;;;;;;16.49;100.00;101799.19;5000883;28;20045;-76
2023/06/28 05:25:52;;;;;;;27.40;9.70;;;;;;;16.56;100.00;101791.06;4994310;28;20018;-76
2023/06/28 05:28:18;;;;;;;20.73;8.52;;;;;;;16.58;100.00;101798.00;5012800;28;20030;-77
2023/06/28 05:30:44;;;;;;;21.40;8.98;;;;;;;16.62;100.00;101798.44;5012629;28;20474;-76
2023/06/28 05:33:10;;;;;;;26.88;10.23;;;;;;;16.62;100.00;101793.84;5013232;28;20036;-76
2023/06/28 05:35:36;;;;;;;26.02;9.50;;;;;;;16.70;100.00;101795.56;5009848;28;20041;-76
2023/06/28 05:38:03;;;;;;;26.45;9.55;;;;;;;16.76;100.00;101800.22;5009933;28;20726;-76
2023/06/28 05:40:29;;;;;;;21.33;8.82;;;;;;;16.77;100.00;101791.06;4994113;28;20054;-77
2023/06/28 05:42:55;;;;;;;28.20;9.00;;;;;;;16.80;100.00;101790.66;5007509;28;20037;-76
2023/06/28 05:45:23;;;;;;;22.75;8.80;;;;;;;16.81;100.00;101788.78;5012828;28;20028;-77
2023/06/28 05:47:49;;;;;;;18.15;8.65;;;;;;;16.86;100.00;101784.41;5012969;28;20030;-76
2023/06/28 05:50:16;;;;;;;35.40;9.73;;;;;;;16.82;100.00;101780.41;5013946;28;20030;-76
2023/06/28 05:52:43;;;;;;;23.40;8.65;;;;;;;16.80;100.00;101777.06;5013643;28;20041;-77
2023/06/28 05:55:08;;;;;;;23.50;9.03;;;;;;;16.84;100.00;101778.31;5012425;28;20526;-77
2023/06/28 05:57:34;;;;;;;23.13;8.70;;;;;;;16.88;100.00;101782.34;5012800;28;20379;-77
2023/06/28 05:59:59;;;;;;;24.25;8.95;;;;;;;16.89;100.00;101773.13;5012155;28;20113;-76
2023/06/28 06:02:27;;;;;;;24.73;9.13;;;;;;;17.00;100.00;101776.31;5012423;28;20083;-76
2023/06/28 06:04:52;;;;;;;29.35;9.25;;;;;;;17.05;100.00;101771.13;5012499;28;20029;-77
2023/06/28 06:07:17;;;;;;;31.48;9.93;;;;;;;17.09;100.00;101767.81;4992305;28;20031;-75
2023/06/28 06:09:43;;;;;;;22.33;8.60;;;;;;;17.19;100.00;101766.56;5011398;28;20367;-76
2023/06/28 06:12:09;;;;;;;20.58;8.35;;;;;;;17.20;100.00;101763.66;5011650;28;20088;-76
2023/06/28 06:14:34;;;;;;;25.95;8.90;;;;;;;17.24;100.00;101764.91;5012294;28;20026;-76
2023/06/28 06:17:00;;;;;;;22.45;9.60;;;;;;;17.17;100.00;101768.63;5011829;28;20096;-77
2023/06/28 06:19:25;;;;;;;26.20;8.65;;;;;;;17.22;100.00;101761.56;5012510;28;20546;-77
2023/06/28 06:21:50;;;;;;;20.17;8.82;;;;;;;17.19;100.00;101766.56;5012357;28;20040;-76
2023/06/28 06:24:16;;;;;;;27.95;8.32;;;;;;;17.26;100.00;101765.56;4997868;28;20025;-76
2023/06/28 06:26:41;;;;;;;20.40;8.13;;;;;;;17.24;100.00;101764.91;5013293;28;20034;-76
2023/06/28 06:29:07;;;;;;;24.88;9.10;;;;;;;17.29;100.00;101765.13;4995771;28;20073;-77
2023/06/28 06:31:32;;;;;;;27.75;7.90;;;;;;;17.32;100.00;101762.03;5011204;28;20028;-76
2023/06/28 06:34:00;;;;;;;24.92;8.38;;;;;;;17.37;100.00;101755.13;4994023;28;20511;-77
2023/06/28 06:36:27;;;;;;;22.55;8.85;;;;;;;17.47;100.00;101758.28;4994756;28;20439;-76
2023/06/28 06:38:53;;;;;;;25.00;8.18;;;;;;;17.47;100.00;101755.56;4995300;28;20048;-76
2023/06/28 06:41:19;;;;;;;26.17;8.10;;;;;;;17.47;100.00;101741.97;4994370;28;20026;-77
2023/06/28 06:43:44;;;;;;;24.50;8.48;;;;;;;17.52;100.00;101751.19;5000180;28;20527;-77
2023/06/28 06:46:10;;;;;;;20.60;8.52;;;;;;;17.59;100.00;101753.94;5011930;28;20022;-77
2023/06/28 06:48:37;;;;;;;24.48;9.43;;;;;;;17.53;100.00;101757.47;4997421;28;20809;-77
2023/06/28 06:51:04;;;;;;;17.00;8.03;;;;;;;17.57;100.00;101752.47;5017139;28;20030;-77
2023/06/28 06:53:29;;;;;;;30.77;9.10;;;;;;;17.65;100.00;101753.09;5015719;28;20030;-77
2023/06/28 06:55:55;;;;;;;22.63;8.50;;;;;;;17.63;100.00;101752.47;4998838;28;20061;-76
2023/06/28 06:58:20;;;;;;;22.63;8.40;;;;;;;17.71;100.00;101749.53;5016912;28;20048;-77
2023/06/28 07:00:47;;;;;;;29.02;9.07;;;;;;;17.79;100.00;101751.25;5000322;28;20085;-77
2023/06/28 07:03:12;;;;;;;21.02;8.75;;;;;;;17.88;100.00;101757.38;5016093;28;20039;-77
2023/06/28 07:05:38;;;;;;;28.30;9.05;;;;;;;18.01;100.00;101756.50;4999349;28;20037;-78
2023/06/28 07:08:03;;;;;;;20.48;7.65;;;;;;;18.03;100.00;101751.69;5017535;28;20030;-77
2023/06/28 07:10:29;;;;;;;23.45;8.13;;;;;;;18.05;100.00;101758.63;5015126;28;20056;-79
2023/06/28 07:12:54;;;;;;;16.13;8.73;;;;;;;18.07;100.00;101759.25;5012882;28;20034;-78
2023/06/28 07:15:19;;;;;;;14.05;8.05;;;;;;;18.06;100.00;101756.72;4997450;28;20032;-78
2023/06/28 07:17:45;;;;;;;18.25;8.30;;;;;;;18.13;100.00;101761.13;5013250;28;21453;-79
2023/06/28 07:20:10;;;;;;;20.40;8.60;;;;;;;18.11;100.00;101755.03;5015278;28;20026;-79
2023/06/28 07:22:36;;;;;;;21.33;8.60;;;;;;;18.26;100.00;101756.75;5013253;28;20034;-77
2023/06/28 07:25:04;;;;;;;22.70;8.80;;;;;;;18.29;100.00;101764.47;5016308;28;20649;-78
2023/06/28 07:27:30;;;;;;;27.13;8.30;;;;;;;18.28;100.00;101765.53;5016373;28;20655;-79
2023/06/28 07:29:56;;;;;;;19.85;8.15;;;;;;;18.38;100.00;101771.41;5017419;28;20034;-80
2023/06/28 07:32:21;;;;;;;18.00;8.05;;;;;;;18.29;100.00;101761.75;5017527;28;20036;-78
2023/06/28 07:34:47;;;;;;;19.50;8.10;;;;;;;18.26;100.00;101754.00;5015155;28;20483;-77
2023/06/28 07:37:12;;;;;;;28.55;8.60;;;;;;;18.24;100.00;101758.81;5014686;28;20036;-77
2023/06/28 07:39:38;;;;;;;23.73;8.80;;;;;;;18.21;100.00;101751.91;5013605;28;20049;-77
2023/06/28 07:42:03;;;;;;;18.75;8.75;;;;;;;18.21;100.00;101755.47;5016225;28;20030;-77
2023/06/28 07:44:29;;;;;;;16.73;8.10;;;;;;;18.31;100.00;101760.50;5015633;28;20042;-77
2023/06/28 07:46:54;;;;;;;22.83;9.38;;;;;;;18.22;100.00;101753.59;5019132;28;20033;-78
2023/06/28 07:49:20;;;;;;;23.27;9.40;;;;;;;18.22;100.00;101761.78;5019545;28;20056;-76
2023/06/28 07:51:45;;;;;;;25.95;9.80;;;;;;;18.29;100.00;101759.88;5018121;28;20026;-77
2023/06/28 07:54:10;;;;;;;22.05;8.30;;;;;;;18.37;100.00;101758.81;5016158;28;20030;-77
2023/06/28 07:56:36;;;;;;;24.08;9.13;;;;;;;18.37;100.00;101756.09;5016705;28;20065;-76
2023/06/28 07:59:03;;;;;;;22.83;9.32;;;;;;;18.30;100.00;101757.97;5013615;28;20034;-78
2023/06/28 08:01:28;;;;;;;19.23;8.52;;;;;;;18.33;100.00;101765.75;5014492;28;20069;-78
2023/06/28 08:03:54;;;;;;;23.23;9.07;;;;;;;18.40;100.00;101759.25;5015460;28;20036;-79
2023/06/28 08:06:19;;;;;;;21.13;9.02;;;;;;;18.49;100.00;101764.47;5014575;28;20189;-77
2023/06/28 08:08:46;;;;;;;36.90;10.13;;;;;;;18.56;100.00;101763.41;5009228;28;20117;-76
2023/06/28 08:11:12;;;;;;;19.75;8.63;;;;;;;18.74;100.00;101756.44;5010044;28;20022;-78
2023/06/28 08:13:37;;;;;;;30.48;9.77;;;;;;;18.83;100.00;101757.94;4998644;28;20327;-80
2023/06/28 08:16:03;;;;;;;16.80;8.45;;;;;;;18.86;100.00;101760.22;5014427;28;20085;-78
2023/06/28 08:18:29;;;;;;;30.08;10.00;;;;;;;18.97;100.00;101754.09;5012542;28;20052;-78
2023/06/28 08:20:54;;;;;;;28.42;10.27;;;;;;;18.93;100.00;101754.72;5016534;28;20034;-79
2023/06/28 08:23:21;;;;;;;39.58;10.35;;;;;;;19.04;100.00;101752.19;5018469;28;20045;-79
2023/06/28 08:25:46;;;;;;;23.58;9.00;;;;;;;19.04;100.00;101757.63;5018429;28;20089;-79
2023/06/28 08:28:12;;;;;;;22.30;9.38;;;;;;;19.12;100.00;101763.91;5018120;28;20519;-80
2023/06/28 08:30:37;;;;;;;23.38;9.90;;;;;;;19.11;100.00;101762.22;5017547;28;20045;-80
2023/06/28 08:33:03;;;;;;;29.65;12.98;;;;;;;19.08;100.00;101760.75;5018551;28;20069;-78
2023/06/28 08:35:28;;;;;;;28.75;11.90;;;;;;;18.92;100.00;101764.81;5015642;28;20072;-81
2023/06/28 08:37:53;;;;;;;28.98;13.50;;;;;;;18.83;100.00;101757.94;5022064;28;20033;-78
2023/06/28 08:40:19;;;;;;;24.73;12.70;;;;;;;18.85;100.00;101766.72;5018791;28;20570;-78
2023/06/28 08:42:45;;;;;;;39.58;13.77;;;;;;;18.85;100.00;101764.84;5018150;28;20026;-78
2023/06/28 08:45:14;;;;;;;29.92;13.15;;;;;;;18.96;100.00;101759.78;5017406;28;20026;-79
2023/06/28 08:47:41;;;;;;;30.23;14.25;;;;;;;18.95;100.00;101756.19;5017844;28;20045;-79
2023/06/28 08:50:07;;;;;;;36.42;12.95;;;;;;;19.11;100.00;101767.69;5017766;28;20034;-79
2023/06/28 08:52:35;;;;;;;21.35;12.38;;;;;;;19.11;100.00;101759.50;5014432;28;20128;-80
2023/06/28 08:55:00;;;;;;;26.80;12.38;;;;;;;19.23;100.00;101752.31;4998721;28;20068;-81
2023/06/28 08:57:26;;;;;;;28.00;13.38;;;;;;;19.16;100.00;101757.78;5001384;28;21155;-78
2023/06/28 08:59:52;;;;;;;33.42;14.07;;;;;;;19.19;100.00;101751.06;4998387;28;20042;-78
2023/06/28 09:02:18;;;;;;;34.72;13.32;;;;;;;19.26;100.00;101752.69;4999584;28;20482;-78
2023/06/28 09:04:44;;;;;;;32.63;13.40;;;;;;;19.32;100.00;101761.91;5012110;28;20038;-77
2023/06/28 09:07:11;;;;;;;22.77;11.95;;;;;;;19.39;100.00;101767.34;4996886;28;20025;-78
2023/06/28 09:09:37;;;;;;;33.53;13.10;;;;;;;19.51;100.00;101760.97;4996500;28;20037;-79
2023/06/28 09:12:02;;;;;;;28.75;12.15;;;;;;;19.66;100.00;101760.69;4999338;28;20048;-79
2023/06/28 09:14:28;;;;;;;29.30;11.85;;;;;;;19.73;100.00;101753.31;5016330;28;20034;-79
2023/06/28 09:16:54;;;;;;;23.95;11.10;;;;;;;19.68;100.00;101750.41;5016161;28;20026;-78
2023/06/28 09:19:19;;;;;;;28.88;11.85;;;;;;;19.70;100.00;101753.75;4997428;28;20467;-78
2023/06/28 09:21:45;;;;;;;28.65;11.45;;;;;;;19.67;100.00;101753.38;5014419;28;20037;-78
2023/06/28 09:24:13;;;;;;;27.30;11.50;;;;;;;19.62;100.00;101753.97;5013643;28;20022;-79
2023/06/28 09:26:42;;;;;;;30.63;10.48;;;;;;;19.69;100.00;101753.94;5016119;28;20026;-79
2023/06/28 09:29:12;;;;;;;27.27;10.93;;;;;;;19.67;100.00;101746.00;5017999;28;20034;-79
2023/06/28 09:31:41;;;;;;;27.10;10.13;;;;;;;19.74;100.00;101749.50;5012112;28;20025;-80
2023/06/28 09:34:07;;;;;;;23.50;9.75;;;;;;;19.83;100.00;101750.09;5014859;28;20034;-79
2023/06/28 09:36:33;;;;;;;26.40;9.98;;;;;;;19.89;100.00;101737.44;4999282;28;20100;-80
2023/06/28 09:39:03;;;;;;;27.48;9.93;;;;;;;19.96;100.00;101740.97;5018636;28;20026;-77
2023/06/28 09:41:37;;;;;;;28.33;9.27;;;;;;;20.15;100.00;101741.84;5013660;28;20042;-80
2023/06/28 09:44:02;;;;;;;26.85;9.48;;;;;;;20.35;100.00;101747.13;4996296;28;20559;-77
2023/06/28 09:46:28;;;;;;;25.02;10.10;;;;;;;20.25;100.00;101739.44;4994084;28;20068;-78
2023/06/28 09:48:53;;;;;;;29.27;10.18;;;;;;;20.12;100.00;101736.84;5020315;28;20053;-77
2023/06/28 09:51:19;;;;;;;23.52;9.52;;;;;;;20.14;100.00;101734.69;5021128;28;20056;-79
2023/06/28 09:53:49;;;;;;;26.65;9.25;;;;;;;20.10;100.00;101741.69;5019263;28;20045;-80
2023/06/28 09:56:16;;;;;;;24.75;9.75;;;;;;;20.17;100.00;101739.72;5016711;28;20125;-78
2023/06/28 09:58:44;;;;;;;27.42;9.73;;;;;;;20.31;100.00;101744.00;5011177;28;20025;-78
2023/06/28 10:01:10;;;;;;;20.13;9.02;;;;;;;20.34;100.00;101743.53;5014223;28;20458;-78
2023/06/28 10:03:37;;;;;;;21.90;9.30;;;;;;;20.46;100.00;101746.41;5014123;28;20141;-79
2023/06/28 10:06:02;;;;;;;20.42;8.70;;;;;;;20.57;100.00;101750.31;5015419;28;20034;-78
2023/06/28 10:08:28;;;;;;;19.83;8.55;;;;;;;20.66;100.00;101746.19;4993442;28;20049;-77
2023/06/28 10:10:55;;;;;;;31.23;10.75;;;;;;;20.66;100.00;101745.38;4996843;28;20057;-78
2023/06/28 10:13:21;;;;;;;23.38;10.10;;;;;;;20.75;100.00;101731.16;5016837;28;20034;-79
2023/06/28 10:16:14;;;;;;;23.35;9.75;;;;;;;20.98;100.00;101726.88;5014628;28;20073;-78
2023/06/28 10:18:41;;;;;;;23.10;9.68;;;;;;;21.17;100.00;101723.06;4997770;28;20109;-78
2023/06/28 10:21:07;;;;;;;31.52;9.45;;;;;;;21.39;100.00;101734.38;5013483;28;20057;-78
2023/06/28 10:23:35;;;;;;;23.17;9.80;;;;;;;21.52;100.00;101716.09;4998241;28;20037;-78
2023/06/28 10:26:02;;;;;;;23.85;9.43;;;;;;;21.61;100.00;101726.47;5014374;28;20033;-78
2023/06/28 10:28:30;;;;;;;24.27;9.82;;;;;;;21.51;100.00;101714.41;5014692;28;20048;-78
2023/06/28 10:30:55;;;;;;;28.00;9.95;;;;;;;21.43;100.00;101713.69;4995370;28;20025;-78
2023/06/28 10:33:23;;;;;;;23.13;10.70;;;;;;;21.59;100.00;101723.13;4993998;28;20034;-77
2023/06/28 10:35:48;;;;;;;23.77;10.38;;;;;;;21.72;100.00;101721.25;4994264;28;20080;-77
2023/06/28 10:38:14;;;;;;;31.50;11.00;;;;;;;21.76;100.00;101716.97;5012288;28;20634;-78
2023/06/28 10:40:39;;;;;;;27.15;10.68;;;;;;;21.93;100.00;101720.69;5011327;28;20021;-77
2023/06/28 10:43:05;;;;;;;28.27;10.45;;;;;;;22.00;100.00;101718.66;5011431;28;20060;-78
2023/06/28 10:45:37;;;;;;;25.58;10.43;;;;;;;22.00;100.00;101724.16;5014904;28;20405;-78
2023/06/28 10:48:04;;;;;;;22.67;10.38;;;;;;;22.12;100.00;101729.66;5014418;28;20445;-78
2023/06/28 10:50:39;;;;;;;23.08;10.13;;;;;;;22.27;100.00;101718.22;5013157;28;20038;-79
2023/06/28 10:53:05;;;;;;;24.35;10.27;;;;;;;22.28;100.00;101719.94;5015284;28;20030;-80
2023/06/28 10:55:32;;;;;;;25.55;11.38;;;;;;;22.24;100.00;101719.53;5014699;28;20131;-79
2023/06/28 10:58:05;;;;;;;28.00;10.23;;;;;;;22.07;100.00;101721.31;5015264;28;20053;-79
2023/06/28 11:00:37;;;;;;;21.70;10.20;;;;;;;22.21;100.00;101724.69;5013502;28;20460;-79
2023/06/28 11:03:04;;;;;;;20.30;10.40;;;;;;;22.18;100.00;101719.66;5020730;28;20053;-81